Aérodrome :
LOGIN :

S'inscrire | Disclaimer

   EN    FR    IT 

 










Légende :    VFR   VFR Marginal   IFR   IFR Intensif   IFR Très Intensif
Visi : 
Plafond : 
>= 8 km
>= 3000ft
5 à 8 km
1000 à 3000 ft
1500m à 5 km
500 à 1000 ft
800 à 1500m
200 à 500 ft
< 800m
< 200 ft
Symboles :   Orages  Brouillard  Fortes neiges  Fortes précipitations  Vent > 20 kt
SIGMETs :   Divers  Orages  Givrage  Turbulence  Onde Orograph.  Cendres Volcan.







- Altitude de l'aérodrome : 160 ft
- Code IATA : LRT
- Voir les cartes d'approche


LFRH - Lorient Lann Bihoue

DERNIER METAR :
  • 250930Z AUTO 06010KT 040V110 9999 FEW008 22/13 Q1024 NOSIG

METARs EXPIRÉS :
  • 250900Z AUTO 07009KT CAVOK 21/13 Q1023 NOSIG
  • 250830Z AUTO 07009KT CAVOK 21/12 Q1024 NOSIG
  • 250800Z AUTO 08010KT 050V110 9999 FEW008 20/12 Q1024 NOSIG
  • 250730Z AUTO 07010KT CAVOK 19/12 Q1023 NOSIG
  • 250700Z AUTO 07008KT CAVOK 19/11 Q1023 NOSIG

TAF TAF LFRH
Valide du 25 à 06h jusqu'au 26 à 06h UTC


250500Z 2506/2606 05010KT CAVOK
TEMPO 2510/2520 05010G20KT
Pas de NOTAMs connus pour ce terrain.



MET'MAP, la Météo Aéronautique d'un coup d'oeil ! - Copyright ORBIFLY Décembre 2007 - Disclaimer

ORBIFLY MET'MAP TEAM :

Programmation & Développement : Alexandra Zaïnal
Conception & Développement : Baudouin d'Aumeries
Co-Programmation & Développement : Marc-Olivier Méhu
Soutien technique & logistique : Manuel Goepfert

Contact : metmap@orbifly.com




SOURCES & CREDITS :

   NOAA